sensor_id;sensor_type;location;lat;lon;timestamp;P1;durP1;ratioP1;P2;durP2;ratioP2
78824;SDS011;68176;45.554;10.220;2023-04-16T00:01:49;3.50;;;1.65;;
78824;SDS011;68176;45.554;10.220;2023-04-16T00:06:48;2.65;;;1.50;;
78824;SDS011;68176;45.554;10.220;2023-04-16T00:09:19;3.22;;;1.90;;
78824;SDS011;68176;45.554;10.220;2023-04-16T00:11:49;2.53;;;1.58;;
78824;SDS011;68176;45.554;10.220;2023-04-16T00:16:49;2.83;;;1.63;;
78824;SDS011;68176;45.554;10.220;2023-04-16T00:21:49;2.90;;;1.48;;
78824;SDS011;68176;45.554;10.220;2023-04-16T00:24:19;3.40;;;1.95;;
78824;SDS011;68176;45.554;10.220;2023-04-16T00:26:49;3.63;;;2.00;;
78824;SDS011;68176;45.554;10.220;2023-04-16T00:29:19;2.95;;;1.60;;
78824;SDS011;68176;45.554;10.220;2023-04-16T00:31:49;2.70;;;2.00;;
78824;SDS011;68176;45.554;10.220;2023-04-16T00:34:19;2.63;;;1.23;;
78824;SDS011;68176;45.554;10.220;2023-04-16T00:36:52;3.63;;;1.77;;
78824;SDS011;68176;45.554;10.220;2023-04-16T00:39:19;3.60;;;1.27;;
78824;SDS011;68176;45.554;10.220;2023-04-16T00:41:49;3.83;;;1.35;;
78824;SDS011;68176;45.554;10.220;2023-04-16T00:44:19;3.08;;;1.67;;
78824;SDS011;68176;45.554;10.220;2023-04-16T00:46:49;2.80;;;1.85;;
78824;SDS011;68176;45.554;10.220;2023-04-16T00:49:19;2.97;;;1.73;;
78824;SDS011;68176;45.554;10.220;2023-04-16T00:51:49;2.88;;;1.40;;
78824;SDS011;68176;45.554;10.220;2023-04-16T00:54:19;3.17;;;1.67;;
78824;SDS011;68176;45.554;10.220;2023-04-16T00:56:49;3.00;;;1.70;;
78824;SDS011;68176;45.554;10.220;2023-04-16T00:59:19;2.60;;;1.23;;
78824;SDS011;68176;45.554;10.220;2023-04-16T01:01:49;2.78;;;1.60;;
78824;SDS011;68176;45.554;10.220;2023-04-16T01:04:19;2.88;;;1.65;;
78824;SDS011;68176;45.554;10.220;2023-04-16T01:06:49;2.95;;;1.73;;
78824;SDS011;68176;45.554;10.220;2023-04-16T01:09:19;2.45;;;1.67;;
78824;SDS011;68176;45.554;10.220;2023-04-16T01:11:49;2.63;;;1.65;;
78824;SDS011;68176;45.554;10.220;2023-04-16T01:14:19;3.42;;;1.65;;
78824;SDS011;68176;45.554;10.220;2023-04-16T01:16:49;3.85;;;1.52;;
78824;SDS011;68176;45.554;10.220;2023-04-16T01:19:19;3.10;;;1.38;;
78824;SDS011;68176;45.554;10.220;2023-04-16T01:21:49;2.53;;;1.25;;
78824;SDS011;68176;45.554;10.220;2023-04-16T01:24:19;3.53;;;1.55;;
78824;SDS011;68176;45.554;10.220;2023-04-16T01:26:49;2.38;;;1.17;;
78824;SDS011;68176;45.554;10.220;2023-04-16T01:29:19;2.45;;;1.27;;
78824;SDS011;68176;45.554;10.220;2023-04-16T01:31:49;2.80;;;1.45;;
78824;SDS011;68176;45.554;10.220;2023-04-16T01:34:19;2.15;;;1.30;;
78824;SDS011;68176;45.554;10.220;2023-04-16T01:36:49;2.35;;;1.52;;
78824;SDS011;68176;45.554;10.220;2023-04-16T01:39:19;3.00;;;1.35;;
78824;SDS011;68176;45.554;10.220;2023-04-16T01:41:49;2.67;;;1.50;;
78824;SDS011;68176;45.554;10.220;2023-04-16T01:44:19;3.47;;;1.65;;
78824;SDS011;68176;45.554;10.220;2023-04-16T01:46:49;2.78;;;1.35;;
78824;SDS011;68176;45.554;10.220;2023-04-16T01:49:19;2.67;;;2.08;;
78824;SDS011;68176;45.554;10.220;2023-04-16T01:51:49;3.40;;;2.30;;
78824;SDS011;68176;45.554;10.220;2023-04-16T01:54:19;2.83;;;1.90;;
78824;SDS011;68176;45.554;10.220;2023-04-16T01:56:49;2.20;;;1.33;;
78824;SDS011;68176;45.554;10.220;2023-04-16T01:59:19;2.70;;;1.27;;
78824;SDS011;68176;45.554;10.220;2023-04-16T02:01:49;3.13;;;1.75;;
78824;SDS011;68176;45.554;10.220;2023-04-16T02:04:19;2.75;;;1.20;;
78824;SDS011;68176;45.554;10.220;2023-04-16T02:06:49;2.63;;;1.48;;
78824;SDS011;68176;45.554;10.220;2023-04-16T02:09:19;3.65;;;1.58;;
78824;SDS011;68176;45.554;10.220;2023-04-16T02:11:49;2.33;;;1.50;;
78824;SDS011;68176;45.554;10.220;2023-04-16T02:14:19;2.47;;;1.42;;
78824;SDS011;68176;45.554;10.220;2023-04-16T02:16:52;3.55;;;1.65;;
78824;SDS011;68176;45.554;10.220;2023-04-16T02:19:19;2.80;;;1.48;;
78824;SDS011;68176;45.554;10.220;2023-04-16T02:21:50;2.92;;;1.42;;
78824;SDS011;68176;45.554;10.220;2023-04-16T02:24:19;2.28;;;1.45;;
78824;SDS011;68176;45.554;10.220;2023-04-16T02:26:49;2.90;;;1.52;;
78824;SDS011;68176;45.554;10.220;2023-04-16T02:29:19;2.65;;;1.48;;
78824;SDS011;68176;45.554;10.220;2023-04-16T02:31:50;2.30;;;1.50;;
78824;SDS011;68176;45.554;10.220;2023-04-16T02:34:19;3.10;;;1.52;;
78824;SDS011;68176;45.554;10.220;2023-04-16T02:36:49;3.58;;;1.70;;
78824;SDS011;68176;45.554;10.220;2023-04-16T02:39:19;2.38;;;1.35;;
78824;SDS011;68176;45.554;10.220;2023-04-16T02:41:49;2.30;;;1.48;;
78824;SDS011;68176;45.554;10.220;2023-04-16T02:44:19;2.72;;;1.52;;
78824;SDS011;68176;45.554;10.220;2023-04-16T02:46:50;2.38;;;1.40;;
78824;SDS011;68176;45.554;10.220;2023-04-16T02:49:19;2.95;;;1.40;;
78824;SDS011;68176;45.554;10.220;2023-04-16T02:51:49;2.35;;;1.50;;
78824;SDS011;68176;45.554;10.220;2023-04-16T02:54:20;2.72;;;1.48;;
78824;SDS011;68176;45.554;10.220;2023-04-16T02:56:49;3.28;;;1.33;;
78824;SDS011;68176;45.554;10.220;2023-04-16T03:01:49;3.00;;;1.58;;
78824;SDS011;68176;45.554;10.220;2023-04-16T03:04:20;2.10;;;1.17;;
78824;SDS011;68176;45.554;10.220;2023-04-16T03:06:49;2.92;;;1.45;;
78824;SDS011;68176;45.554;10.220;2023-04-16T03:09:19;2.72;;;1.55;;
78824;SDS011;68176;45.554;10.220;2023-04-16T03:11:50;2.80;;;1.58;;
78824;SDS011;68176;45.554;10.220;2023-04-16T03:14:20;3.35;;;1.25;;
78824;SDS011;68176;45.554;10.220;2023-04-16T03:16:50;3.75;;;1.63;;
78824;SDS011;68176;45.554;10.220;2023-04-16T03:19:20;2.13;;;1.38;;
78824;SDS011;68176;45.554;10.220;2023-04-16T03:24:20;3.17;;;1.42;;
78824;SDS011;68176;45.554;10.220;2023-04-16T03:26:53;2.92;;;1.20;;
78824;SDS011;68176;45.554;10.220;2023-04-16T03:29:22;2.60;;;1.40;;
78824;SDS011;68176;45.554;10.220;2023-04-16T03:34:20;2.83;;;1.50;;
78824;SDS011;68176;45.554;10.220;2023-04-16T03:36:50;2.20;;;1.30;;
78824;SDS011;68176;45.554;10.220;2023-04-16T03:39:20;3.25;;;1.38;;
78824;SDS011;68176;45.554;10.220;2023-04-16T03:41:50;2.50;;;1.13;;
78824;SDS011;68176;45.554;10.220;2023-04-16T03:44:20;2.30;;;1.25;;
78824;SDS011;68176;45.554;10.220;2023-04-16T03:46:50;2.38;;;0.93;;
78824;SDS011;68176;45.554;10.220;2023-04-16T03:49:20;2.60;;;1.50;;
78824;SDS011;68176;45.554;10.220;2023-04-16T03:51:50;2.13;;;1.35;;
78824;SDS011;68176;45.554;10.220;2023-04-16T03:54:20;2.58;;;1.30;;
78824;SDS011;68176;45.554;10.220;2023-04-16T03:56:50;2.50;;;1.30;;
78824;SDS011;68176;45.554;10.220;2023-04-16T03:59:20;1.92;;;0.95;;
78824;SDS011;68176;45.554;10.220;2023-04-16T04:01:50;3.00;;;1.65;;
78824;SDS011;68176;45.554;10.220;2023-04-16T04:04:20;1.60;;;0.95;;
78824;SDS011;68176;45.554;10.220;2023-04-16T04:06:51;2.55;;;1.48;;
78824;SDS011;68176;45.554;10.220;2023-04-16T04:09:20;2.72;;;1.23;;
78824;SDS011;68176;45.554;10.220;2023-04-16T04:14:20;2.78;;;1.20;;
78824;SDS011;68176;45.554;10.220;2023-04-16T04:16:50;2.35;;;1.60;;
78824;SDS011;68176;45.554;10.220;2023-04-16T04:19:20;2.50;;;1.33;;
78824;SDS011;68176;45.554;10.220;2023-04-16T04:21:50;2.88;;;1.88;;
78824;SDS011;68176;45.554;10.220;2023-04-16T04:24:20;2.55;;;1.20;;
78824;SDS011;68176;45.554;10.220;2023-04-16T04:29:20;2.75;;;1.30;;
78824;SDS011;68176;45.554;10.220;2023-04-16T04:31:50;3.47;;;1.40;;
78824;SDS011;68176;45.554;10.220;2023-04-16T04:34:20;3.30;;;1.50;;
78824;SDS011;68176;45.554;10.220;2023-04-16T04:36:50;2.45;;;1.17;;
78824;SDS011;68176;45.554;10.220;2023-04-16T04:39:20;2.08;;;1.30;;
78824;SDS011;68176;45.554;10.220;2023-04-16T04:41:50;2.38;;;1.40;;
78824;SDS011;68176;45.554;10.220;2023-04-16T04:44:20;2.33;;;1.48;;
78824;SDS011;68176;45.554;10.220;2023-04-16T04:46:50;2.67;;;1.67;;
78824;SDS011;68176;45.554;10.220;2023-04-16T04:49:20;4.07;;;1.50;;
78824;SDS011;68176;45.554;10.220;2023-04-16T04:51:50;2.67;;;1.23;;
78824;SDS011;68176;45.554;10.220;2023-04-16T04:56:50;2.55;;;1.50;;
78824;SDS011;68176;45.554;10.220;2023-04-16T04:59:20;2.78;;;1.33;;
78824;SDS011;68176;45.554;10.220;2023-04-16T05:01:50;2.25;;;1.30;;
78824;SDS011;68176;45.554;10.220;2023-04-16T05:04:20;2.65;;;1.38;;
78824;SDS011;68176;45.554;10.220;2023-04-16T05:06:50;4.03;;;1.40;;
78824;SDS011;68176;45.554;10.220;2023-04-16T05:09:20;2.28;;;1.38;;
78824;SDS011;68176;45.554;10.220;2023-04-16T05:11:50;2.67;;;1.70;;
78824;SDS011;68176;45.554;10.220;2023-04-16T05:14:20;2.25;;;1.20;;
78824;SDS011;68176;45.554;10.220;2023-04-16T05:16:50;2.22;;;1.58;;
78824;SDS011;68176;45.554;10.220;2023-04-16T05:21:50;3.22;;;1.33;;
78824;SDS011;68176;45.554;10.220;2023-04-16T05:24:21;4.13;;;1.20;;
78824;SDS011;68176;45.554;10.220;2023-04-16T05:26:50;2.55;;;1.30;;
78824;SDS011;68176;45.554;10.220;2023-04-16T05:29:20;2.47;;;1.73;;
78824;SDS011;68176;45.554;10.220;2023-04-16T05:34:20;2.78;;;1.83;;
78824;SDS011;68176;45.554;10.220;2023-04-16T05:36:50;2.40;;;1.25;;
78824;SDS011;68176;45.554;10.220;2023-04-16T05:39:20;1.88;;;1.02;;
78824;SDS011;68176;45.554;10.220;2023-04-16T05:41:50;2.50;;;1.02;;
78824;SDS011;68176;45.554;10.220;2023-04-16T05:46:50;3.35;;;1.55;;
78824;SDS011;68176;45.554;10.220;2023-04-16T05:49:20;2.00;;;1.35;;
78824;SDS011;68176;45.554;10.220;2023-04-16T05:51:50;2.95;;;1.48;;
78824;SDS011;68176;45.554;10.220;2023-04-16T05:54:20;3.13;;;1.98;;
78824;SDS011;68176;45.554;10.220;2023-04-16T05:56:50;2.15;;;1.67;;
78824;SDS011;68176;45.554;10.220;2023-04-16T05:59:20;2.28;;;1.35;;
78824;SDS011;68176;45.554;10.220;2023-04-16T06:01:50;2.58;;;1.17;;
78824;SDS011;68176;45.554;10.220;2023-04-16T06:04:20;2.30;;;0.98;;
78824;SDS011;68176;45.554;10.220;2023-04-16T06:06:53;2.55;;;1.48;;
78824;SDS011;68176;45.554;10.220;2023-04-16T06:09:20;1.88;;;0.90;;
78824;SDS011;68176;45.554;10.220;2023-04-16T06:11:55;2.60;;;1.65;;
78824;SDS011;68176;45.554;10.220;2023-04-16T06:14:29;2.80;;;1.23;;
78824;SDS011;68176;45.554;10.220;2023-04-16T06:17:03;1.88;;;1.35;;
78824;SDS011;68176;45.554;10.220;2023-04-16T06:19:38;1.77;;;1.05;;
78824;SDS011;68176;45.554;10.220;2023-04-16T06:22:07;2.60;;;2.00;;
78824;SDS011;68176;45.554;10.220;2023-04-16T06:25:08;1.98;;;1.35;;
78824;SDS011;68176;45.554;10.220;2023-04-16T06:27:44;2.33;;;1.57;;
78824;SDS011;68176;45.554;10.220;2023-04-16T06:30:13;2.20;;;2.00;;
78824;SDS011;68176;45.554;10.220;2023-04-16T06:32:40;1.50;;;0.70;;
78824;SDS011;68176;45.554;10.220;2023-04-16T06:35:08;2.38;;;1.20;;
78824;SDS011;68176;45.554;10.220;2023-04-16T06:37:38;2.08;;;0.95;;
78824;SDS011;68176;45.554;10.220;2023-04-16T06:45:08;2.05;;;1.02;;
78824;SDS011;68176;45.554;10.220;2023-04-16T06:47:38;2.15;;;1.05;;
78824;SDS011;68176;45.554;10.220;2023-04-16T06:52:38;2.78;;;0.93;;
78824;SDS011;68176;45.554;10.220;2023-04-16T06:57:38;1.98;;;0.95;;
78824;SDS011;68176;45.554;10.220;2023-04-16T07:00:10;1.27;;;0.73;;
78824;SDS011;68176;45.554;10.220;2023-04-16T07:02:38;2.22;;;1.15;;
78824;SDS011;68176;45.554;10.220;2023-04-16T07:07:38;3.00;;;1.38;;
78824;SDS011;68176;45.554;10.220;2023-04-16T07:10:08;1.77;;;1.08;;
78824;SDS011;68176;45.554;10.220;2023-04-16T07:12:40;2.10;;;1.20;;
78824;SDS011;68176;45.554;10.220;2023-04-16T07:15:14;1.70;;;1.30;;
78824;SDS011;68176;45.554;10.220;2023-04-16T07:17:42;2.50;;;0.90;;
78824;SDS011;68176;45.554;10.220;2023-04-16T07:20:10;1.98;;;1.15;;
78824;SDS011;68176;45.554;10.220;2023-04-16T07:22:38;2.05;;;1.10;;
78824;SDS011;68176;45.554;10.220;2023-04-16T07:25:08;2.22;;;1.15;;
78824;SDS011;68176;45.554;10.220;2023-04-16T07:27:53;2.75;;;1.77;;
78824;SDS011;68176;45.554;10.220;2023-04-16T07:31:08;2.80;;;1.08;;
78824;SDS011;68176;45.554;10.220;2023-04-16T07:33:36;0.20;;;0.10;;
78824;SDS011;68176;45.554;10.220;2023-04-16T07:36:32;1.37;;;1.00;;
78824;SDS011;68176;45.554;10.220;2023-04-16T07:39:05;1.73;;;0.90;;
78824;SDS011;68176;45.554;10.220;2023-04-16T07:41:31;0.80;;;0.50;;
78824;SDS011;68176;45.554;10.220;2023-04-16T07:47:39;3.30;;;1.33;;
78824;SDS011;68176;45.554;10.220;2023-04-16T07:53:33;1.48;;;0.73;;
78824;SDS011;68176;45.554;10.220;2023-04-16T08:02:40;2.05;;;1.27;;
78824;SDS011;68176;45.554;10.220;2023-04-16T08:08:48;2.47;;;1.00;;
78824;SDS011;68176;45.554;10.220;2023-04-16T08:21:10;3.55;;;1.30;;
78824;SDS011;68176;45.554;10.220;2023-04-16T08:23:35;3.30;;;2.60;;
78824;SDS011;68176;45.554;10.220;2023-04-16T08:26:03;10.45;;;6.18;;
78824;SDS011;68176;45.554;10.220;2023-04-16T08:28:37;8.65;;;6.82;;
78824;SDS011;68176;45.554;10.220;2023-04-16T08:31:03;21.33;;;6.45;;
78824;SDS011;68176;45.554;10.220;2023-04-16T08:33:34;11.18;;;5.80;;
78824;SDS011;68176;45.554;10.220;2023-04-16T08:36:04;8.68;;;6.00;;
78824;SDS011;68176;45.554;10.220;2023-04-16T08:38:36;11.27;;;5.93;;
78824;SDS011;68176;45.554;10.220;2023-04-16T08:41:04;4.90;;;4.38;;
78824;SDS011;68176;45.554;10.220;2023-04-16T08:43:35;5.00;;;3.10;;
78824;SDS011;68176;45.554;10.220;2023-04-16T08:46:04;7.25;;;4.28;;
78824;SDS011;68176;45.554;10.220;2023-04-16T08:48:34;6.30;;;4.28;;
78824;SDS011;68176;45.554;10.220;2023-04-16T08:51:04;7.50;;;5.30;;
78824;SDS011;68176;45.554;10.220;2023-04-16T08:53:35;4.83;;;3.27;;
78824;SDS011;68176;45.554;10.220;2023-04-16T08:56:07;5.25;;;3.60;;
78824;SDS011;68176;45.554;10.220;2023-04-16T08:58:35;3.80;;;3.50;;
78824;SDS011;68176;45.554;10.220;2023-04-16T09:01:04;4.10;;;3.45;;
78824;SDS011;68176;45.554;10.220;2023-04-16T09:03:34;5.82;;;4.35;;
78824;SDS011;68176;45.554;10.220;2023-04-16T09:06:04;7.50;;;4.30;;
78824;SDS011;68176;45.554;10.220;2023-04-16T09:08:34;5.10;;;4.05;;
78824;SDS011;68176;45.554;10.220;2023-04-16T09:11:04;5.93;;;4.40;;
78824;SDS011;68176;45.554;10.220;2023-04-16T09:13:36;5.90;;;3.35;;
78824;SDS011;68176;45.554;10.220;2023-04-16T09:16:05;7.13;;;3.80;;
78824;SDS011;68176;45.554;10.220;2023-04-16T09:18:36;8.65;;;3.00;;
78824;SDS011;68176;45.554;10.220;2023-04-16T09:21:20;4.45;;;3.40;;
78824;SDS011;68176;45.554;10.220;2023-04-16T09:23:54;7.60;;;3.70;;
78824;SDS011;68176;45.554;10.220;2023-04-16T09:26:30;5.93;;;4.17;;
78824;SDS011;68176;45.554;10.220;2023-04-16T09:29:03;4.20;;;2.65;;
78824;SDS011;68176;45.554;10.220;2023-04-16T09:32:01;6.53;;;4.45;;
78824;SDS011;68176;45.554;10.220;2023-04-16T09:34:52;3.93;;;2.37;;
78824;SDS011;68176;45.554;10.220;2023-04-16T09:37:39;3.10;;;2.70;;
78824;SDS011;68176;45.554;10.220;2023-04-16T09:40:10;4.30;;;2.00;;
78824;SDS011;68176;45.554;10.220;2023-04-16T09:43:09;3.53;;;2.45;;
78824;SDS011;68176;45.554;10.220;2023-04-16T09:45:49;4.40;;;2.60;;
78824;SDS011;68176;45.554;10.220;2023-04-16T09:48:29;5.97;;;2.88;;
78824;SDS011;68176;45.554;10.220;2023-04-16T09:51:06;2.88;;;2.40;;
78824;SDS011;68176;45.554;10.220;2023-04-16T09:53:35;3.65;;;2.85;;
78824;SDS011;68176;45.554;10.220;2023-04-16T09:56:01;4.85;;;3.00;;
78824;SDS011;68176;45.554;10.220;2023-04-16T09:58:30;2.20;;;2.00;;
78824;SDS011;68176;45.554;10.220;2023-04-16T10:01:02;6.65;;;2.85;;
78824;SDS011;68176;45.554;10.220;2023-04-16T10:03:43;4.60;;;2.13;;
78824;SDS011;68176;45.554;10.220;2023-04-16T10:06:21;3.65;;;1.42;;
78824;SDS011;68176;45.554;10.220;2023-04-16T10:08:59;2.90;;;1.60;;
78824;SDS011;68176;45.554;10.220;2023-04-16T10:11:34;3.87;;;1.40;;
78824;SDS011;68176;45.554;10.220;2023-04-16T10:14:01;4.70;;;2.20;;
78824;SDS011;68176;45.554;10.220;2023-04-16T10:16:31;3.67;;;2.20;;
78824;SDS011;68176;45.554;10.220;2023-04-16T10:19:05;4.35;;;2.85;;
78824;SDS011;68176;45.554;10.220;2023-04-16T10:21:39;4.20;;;2.60;;
78824;SDS011;68176;45.554;10.220;2023-04-16T10:24:12;3.30;;;1.93;;
78824;SDS011;68176;45.554;10.220;2023-04-16T10:26:40;3.35;;;1.77;;
78824;SDS011;68176;45.554;10.220;2023-04-16T10:29:06;2.10;;;1.90;;
78824;SDS011;68176;45.554;10.220;2023-04-16T10:31:34;4.40;;;1.55;;
78824;SDS011;68176;45.554;10.220;2023-04-16T10:34:07;3.15;;;1.75;;
78824;SDS011;68176;45.554;10.220;2023-04-16T10:36:37;3.63;;;1.83;;
78824;SDS011;68176;45.554;10.220;2023-04-16T10:39:08;2.30;;;1.38;;
78824;SDS011;68176;45.554;10.220;2023-04-16T10:41:38;4.20;;;1.90;;
78824;SDS011;68176;45.554;10.220;2023-04-16T10:44:07;2.80;;;2.10;;
78824;SDS011;68176;45.554;10.220;2023-04-16T10:46:41;3.28;;;1.88;;
78824;SDS011;68176;45.554;10.220;2023-04-16T10:49:24;2.40;;;1.60;;
78824;SDS011;68176;45.554;10.220;2023-04-16T10:54:24;2.73;;;0.93;;
78824;SDS011;68176;45.554;10.220;2023-04-16T10:56:57;3.30;;;1.63;;
78824;SDS011;68176;45.554;10.220;2023-04-16T10:59:30;2.40;;;1.40;;
78824;SDS011;68176;45.554;10.220;2023-04-16T11:01:58;3.70;;;2.20;;
78824;SDS011;68176;45.554;10.220;2023-04-16T11:04:34;3.83;;;1.58;;
78824;SDS011;68176;45.554;10.220;2023-04-16T11:10:04;3.53;;;1.92;;
78824;SDS011;68176;45.554;10.220;2023-04-16T11:15:13;1.30;;;0.90;;
78824;SDS011;68176;45.554;10.220;2023-04-16T11:17:49;1.75;;;1.02;;
78824;SDS011;68176;45.554;10.220;2023-04-16T11:22:45;0.60;;;0.10;;
78824;SDS011;68176;45.554;10.220;2023-04-16T11:25:20;4.25;;;1.00;;
78824;SDS011;68176;45.554;10.220;2023-04-16T11:27:49;3.20;;;1.20;;
78824;SDS011;68176;45.554;10.220;2023-04-16T11:30:15;3.35;;;1.25;;
78824;SDS011;68176;45.554;10.220;2023-04-16T11:32:43;2.42;;;1.02;;
78824;SDS011;68176;45.554;10.220;2023-04-16T11:35:16;8.00;;;2.00;;
78824;SDS011;68176;45.554;10.220;2023-04-16T11:37:46;2.20;;;1.40;;
78824;SDS011;68176;45.554;10.220;2023-04-16T11:40:14;1.60;;;0.90;;
78824;SDS011;68176;45.554;10.220;2023-04-16T11:42:42;3.30;;;1.13;;
78824;SDS011;68176;45.554;10.220;2023-04-16T11:45:12;3.88;;;0.90;;
78824;SDS011;68176;45.554;10.220;2023-04-16T11:50:24;1.73;;;1.05;;
78824;SDS011;68176;45.554;10.220;2023-04-16T11:52:51;1.67;;;0.90;;
78824;SDS011;68176;45.554;10.220;2023-04-16T11:55:20;1.70;;;1.00;;
78824;SDS011;68176;45.554;10.220;2023-04-16T11:57:52;2.25;;;1.15;;
78824;SDS011;68176;45.554;10.220;2023-04-16T12:00:20;2.13;;;1.07;;
78824;SDS011;68176;45.554;10.220;2023-04-16T12:02:50;1.40;;;0.60;;
78824;SDS011;68176;45.554;10.220;2023-04-16T12:05:35;1.77;;;0.60;;
78824;SDS011;68176;45.554;10.220;2023-04-16T12:08:11;1.80;;;0.77;;
78824;SDS011;68176;45.554;10.220;2023-04-16T12:11:00;2.72;;;1.00;;
78824;SDS011;68176;45.554;10.220;2023-04-16T12:13:28;0.00;;;0.00;;
78824;SDS011;68176;45.554;10.220;2023-04-16T12:15:54;3.25;;;1.60;;
78824;SDS011;68176;45.554;10.220;2023-04-16T12:18:24;2.33;;;1.33;;
78824;SDS011;68176;45.554;10.220;2023-04-16T12:20:57;1.58;;;0.73;;
78824;SDS011;68176;45.554;10.220;2023-04-16T12:23:28;3.35;;;1.13;;
78824;SDS011;68176;45.554;10.220;2023-04-16T12:25:57;2.03;;;0.93;;
78824;SDS011;68176;45.554;10.220;2023-04-16T12:28:33;0.80;;;0.60;;
78824;SDS011;68176;45.554;10.220;2023-04-16T12:31:03;2.00;;;0.52;;
78824;SDS011;68176;45.554;10.220;2023-04-16T12:33:32;1.50;;;0.40;;
78824;SDS011;68176;45.554;10.220;2023-04-16T12:35:59;1.65;;;0.70;;
78824;SDS011;68176;45.554;10.220;2023-04-16T12:38:29;4.55;;;0.95;;
78824;SDS011;68176;45.554;10.220;2023-04-16T12:40:57;2.40;;;1.48;;
78824;SDS011;68176;45.554;10.220;2023-04-16T12:43:27;3.28;;;1.00;;
78824;SDS011;68176;45.554;10.220;2023-04-16T12:45:59;2.50;;;2.10;;
78824;SDS011;68176;45.554;10.220;2023-04-16T12:48:27;2.23;;;0.70;;
78824;SDS011;68176;45.554;10.220;2023-04-16T12:50:57;4.47;;;0.98;;
78824;SDS011;68176;45.554;10.220;2023-04-16T12:53:35;2.53;;;0.95;;
78824;SDS011;68176;45.554;10.220;2023-04-16T12:56:01;0.55;;;0.25;;
78824;SDS011;68176;45.554;10.220;2023-04-16T12:58:27;2.47;;;1.30;;
78824;SDS011;68176;45.554;10.220;2023-04-16T13:03:27;2.90;;;0.82;;
78824;SDS011;68176;45.554;10.220;2023-04-16T13:05:57;2.30;;;0.98;;
78824;SDS011;68176;45.554;10.220;2023-04-16T13:08:27;2.13;;;0.77;;
78824;SDS011;68176;45.554;10.220;2023-04-16T13:10:57;1.58;;;0.70;;
78824;SDS011;68176;45.554;10.220;2023-04-16T13:13:29;2.35;;;1.05;;
78824;SDS011;68176;45.554;10.220;2023-04-16T13:15:57;2.10;;;0.90;;
78824;SDS011;68176;45.554;10.220;2023-04-16T13:18:27;1.38;;;0.60;;
78824;SDS011;68176;45.554;10.220;2023-04-16T13:20:59;1.60;;;0.63;;
78824;SDS011;68176;45.554;10.220;2023-04-16T13:23:27;2.13;;;1.02;;
78824;SDS011;68176;45.554;10.220;2023-04-16T13:25:57;1.80;;;0.77;;
78824;SDS011;68176;45.554;10.220;2023-04-16T13:28:30;1.60;;;0.80;;
78824;SDS011;68176;45.554;10.220;2023-04-16T13:30:57;1.70;;;0.68;;
78824;SDS011;68176;45.554;10.220;2023-04-16T13:33:27;1.88;;;0.65;;
78824;SDS011;68176;45.554;10.220;2023-04-16T13:35:57;2.80;;;1.05;;
78824;SDS011;68176;45.554;10.220;2023-04-16T13:38:27;1.52;;;0.65;;
78824;SDS011;68176;45.554;10.220;2023-04-16T13:40:57;1.45;;;0.65;;
78824;SDS011;68176;45.554;10.220;2023-04-16T13:43:27;1.85;;;0.95;;
78824;SDS011;68176;45.554;10.220;2023-04-16T13:46:01;1.00;;;0.20;;
78824;SDS011;68176;45.554;10.220;2023-04-16T13:50:57;2.03;;;0.88;;
78824;SDS011;68176;45.554;10.220;2023-04-16T13:53:27;1.73;;;1.00;;
78824;SDS011;68176;45.554;10.220;2023-04-16T13:55:57;2.25;;;1.00;;
78824;SDS011;68176;45.554;10.220;2023-04-16T13:58:27;1.58;;;0.77;;
78824;SDS011;68176;45.554;10.220;2023-04-16T14:00:57;1.70;;;0.98;;
78824;SDS011;68176;45.554;10.220;2023-04-16T14:03:30;2.50;;;1.42;;
78824;SDS011;68176;45.554;10.220;2023-04-16T14:06:03;1.55;;;0.30;;
78824;SDS011;68176;45.554;10.220;2023-04-16T14:08:29;1.90;;;1.10;;
78824;SDS011;68176;45.554;10.220;2023-04-16T14:10:57;1.55;;;0.70;;
78824;SDS011;68176;45.554;10.220;2023-04-16T14:13:27;1.80;;;0.68;;
78824;SDS011;68176;45.554;10.220;2023-04-16T14:16:00;0.88;;;0.30;;
78824;SDS011;68176;45.554;10.220;2023-04-16T14:18:30;3.65;;;0.60;;
78824;SDS011;68176;45.554;10.220;2023-04-16T14:20:57;5.70;;;1.15;;
78824;SDS011;68176;45.554;10.220;2023-04-16T14:23:27;1.80;;;1.05;;
78824;SDS011;68176;45.554;10.220;2023-04-16T14:25:57;1.17;;;0.35;;
78824;SDS011;68176;45.554;10.220;2023-04-16T14:28:27;1.88;;;0.85;;
78824;SDS011;68176;45.554;10.220;2023-04-16T14:30:58;2.42;;;0.85;;
78824;SDS011;68176;45.554;10.220;2023-04-16T14:33:27;1.70;;;0.85;;
78824;SDS011;68176;45.554;10.220;2023-04-16T14:38:27;1.60;;;0.63;;
78824;SDS011;68176;45.554;10.220;2023-04-16T14:40:57;1.67;;;1.33;;
78824;SDS011;68176;45.554;10.220;2023-04-16T14:43:27;2.50;;;1.70;;
78824;SDS011;68176;45.554;10.220;2023-04-16T14:45:57;3.17;;;1.85;;
78824;SDS011;68176;45.554;10.220;2023-04-16T14:48:27;2.65;;;1.23;;
78824;SDS011;68176;45.554;10.220;2023-04-16T14:50:57;3.38;;;1.08;;
78824;SDS011;68176;45.554;10.220;2023-04-16T14:55:57;2.35;;;1.05;;
78824;SDS011;68176;45.554;10.220;2023-04-16T14:58:27;2.00;;;1.05;;
78824;SDS011;68176;45.554;10.220;2023-04-16T15:00:58;3.15;;;1.02;;
78824;SDS011;68176;45.554;10.220;2023-04-16T15:03:28;2.13;;;1.17;;
78824;SDS011;68176;45.554;10.220;2023-04-16T15:05:58;2.10;;;1.10;;
78824;SDS011;68176;45.554;10.220;2023-04-16T15:08:27;2.22;;;0.80;;
78824;SDS011;68176;45.554;10.220;2023-04-16T15:10:57;2.10;;;0.88;;
78824;SDS011;68176;45.554;10.220;2023-04-16T15:13:38;2.28;;;0.85;;
78824;SDS011;68176;45.554;10.220;2023-04-16T15:16:09;3.80;;;0.95;;
78824;SDS011;68176;45.554;10.220;2023-04-16T15:19:07;1.67;;;0.73;;
78824;SDS011;68176;45.554;10.220;2023-04-16T15:21:38;2.13;;;1.58;;
78824;SDS011;68176;45.554;10.220;2023-04-16T15:24:04;1.55;;;0.70;;
78824;SDS011;68176;45.554;10.220;2023-04-16T15:26:35;0.55;;;0.40;;
78824;SDS011;68176;45.554;10.220;2023-04-16T15:29:00;1.60;;;0.40;;
78824;SDS011;68176;45.554;10.220;2023-04-16T15:31:29;3.03;;;1.02;;
78824;SDS011;68176;45.554;10.220;2023-04-16T15:33:59;2.38;;;0.98;;
78824;SDS011;68176;45.554;10.220;2023-04-16T15:36:29;2.95;;;1.30;;
78824;SDS011;68176;45.554;10.220;2023-04-16T15:38:59;1.55;;;0.47;;
78824;SDS011;68176;45.554;10.220;2023-04-16T15:41:34;1.20;;;0.50;;
78824;SDS011;68176;45.554;10.220;2023-04-16T15:44:06;1.10;;;0.30;;
78824;SDS011;68176;45.554;10.220;2023-04-16T15:46:31;0.60;;;0.20;;
78824;SDS011;68176;45.554;10.220;2023-04-16T15:49:02;1.95;;;0.68;;
78824;SDS011;68176;45.554;10.220;2023-04-16T15:51:29;1.30;;;0.63;;
78824;SDS011;68176;45.554;10.220;2023-04-16T15:53:59;1.60;;;0.55;;
78824;SDS011;68176;45.554;10.220;2023-04-16T15:56:29;2.83;;;0.68;;
78824;SDS011;68176;45.554;10.220;2023-04-16T15:59:05;2.35;;;0.93;;
78824;SDS011;68176;45.554;10.220;2023-04-16T16:01:39;3.00;;;0.60;;
78824;SDS011;68176;45.554;10.220;2023-04-16T16:06:57;1.10;;;0.40;;
78824;SDS011;68176;45.554;10.220;2023-04-16T16:09:25;2.63;;;0.25;;
78824;SDS011;68176;45.554;10.220;2023-04-16T16:11:52;2.10;;;0.83;;
78824;SDS011;68176;45.554;10.220;2023-04-16T16:14:29;0.95;;;0.45;;
78824;SDS011;68176;45.554;10.220;2023-04-16T16:16:54;1.83;;;1.10;;
78824;SDS011;68176;45.554;10.220;2023-04-16T16:19:26;2.13;;;0.63;;
78824;SDS011;68176;45.554;10.220;2023-04-16T16:22:09;1.42;;;0.57;;
78824;SDS011;68176;45.554;10.220;2023-04-16T16:24:55;0.80;;;0.30;;
78824;SDS011;68176;45.554;10.220;2023-04-16T16:27:30;3.20;;;0.40;;
78824;SDS011;68176;45.554;10.220;2023-04-16T16:29:58;1.60;;;0.50;;
78824;SDS011;68176;45.554;10.220;2023-04-16T16:32:28;0.30;;;0.08;;